Terminal Aerodrome Forecast
Issued by NWS

Home | Current Version | Previous Version | Text Only | Print | Product List | Glossary On
Versions: 1 2 3 4 5 6 7 8 9 10 11 12 13 14
000
FTUS44 KLIX 230900 AAA
TAFMCB
TAF AMD
KMCB 230956Z 2310/2406 14008KT 6SM -RA BR OVC004
      TEMPO 2311/2315 3SM RA BR OVC004
     FM231500 18011KT 3SM -SHRA BKN015
     FM231800 22013KT P6SM SCT025
     FM232000 21011KT P6SM SCT110=

USA.gov is the U.S. government's official web portal to all federal, state and local government web resources and services.